createdAt,value
2022-09-23T00:00:15.812Z,99044.25
2022-09-23T00:01:18.190Z,99022.38
2022-09-23T00:02:20.995Z,99044.25
2022-09-23T00:03:22.784Z,99039.97
2022-09-23T00:04:24.585Z,99042.84
2022-09-23T00:05:27.888Z,99043.66
2022-09-23T00:06:29.678Z,99039.38
2022-09-23T00:07:31.382Z,99041.44
2022-09-23T00:08:33.714Z,99021.22
2022-09-23T00:09:35.414Z,99042.50
2022-09-23T00:10:39.398Z,99039.25
2022-09-23T00:11:41.050Z,99030.13
2022-09-23T00:12:43.130Z,99031.75
2022-09-23T00:13:47.617Z,99037.63
2022-09-23T00:14:49.317Z,99031.28
2022-09-23T00:15:51.608Z,99041.09
2022-09-23T00:16:53.441Z,99036.59
2022-09-23T00:17:55.116Z,99018.34
2022-09-23T00:18:56.976Z,99027.81
2022-09-23T00:19:58.889Z,99039.38
2022-09-23T00:21:20.228Z,99033.84
2022-09-23T00:22:22.207Z,99034.50
2022-09-23T00:23:24.145Z,99033.72
2022-09-23T00:24:25.823Z,99033.25
2022-09-23T00:25:29.796Z,99028.63
2022-09-23T00:26:31.499Z,99031.63
2022-09-23T00:27:34.067Z,99034.50
2022-09-23T00:28:35.751Z,99033.47
2022-09-23T00:29:37.411Z,99026.53
2022-09-23T00:30:41.705Z,99025.97
2022-09-23T00:31:43.359Z,99031.84
2022-09-23T00:32:44.997Z,99021.44
2022-09-23T00:33:46.940Z,99028.63
2022-09-23T00:34:48.607Z,99030.94
2022-09-23T00:35:50.277Z,99027.69
2022-09-23T00:36:51.924Z,99024.81
2022-09-23T00:37:53.620Z,99029.09
2022-09-23T00:38:55.904Z,99018.78
2022-09-23T00:39:57.577Z,99013.91
2022-09-23T00:40:59.207Z,99019.72
2022-09-23T00:42:01.015Z,99019.22
2022-09-23T00:43:02.925Z,99013.59
2022-09-23T00:44:42.895Z,99024.09
2022-09-23T00:45:48.645Z,99028.38
2022-09-23T00:46:50.586Z,99026.97
2022-09-23T00:47:57.304Z,99028.59
2022-09-23T00:49:06.843Z,99008.28
2022-09-23T00:50:10.103Z,99022.84
2022-09-23T00:51:18.008Z,99028.75
2022-09-23T00:52:23.287Z,99017.63
2022-09-23T00:53:26.862Z,99022.72
2022-09-23T00:54:31.340Z,99026.44
2022-09-23T00:55:39.587Z,99030.13
2022-09-23T00:56:41.322Z,99009.91
2022-09-23T00:57:45.508Z,99023.19
2022-09-23T00:58:49.534Z,98998.88
2022-09-23T00:59:52.046Z,98986.97
2022-09-23T01:00:54.973Z,99020.41
2022-09-23T01:01:59.153Z,99014.63
2022-09-23T01:03:01.809Z,99012.78
2022-09-23T01:04:04.339Z,99006.03
2022-09-23T01:05:07.800Z,99023.06
2022-09-23T01:06:10.492Z,99020.84
2022-09-23T01:07:12.161Z,99007.25
2022-09-23T01:08:15.440Z,98998.28
2022-09-23T01:09:18.119Z,99008.59
2022-09-23T01:10:20.065Z,99014.66
2022-09-23T01:11:27.628Z,99014.88
2022-09-23T01:12:52.062Z,99018.56
2022-09-23T01:14:34.804Z,99017.88
2022-09-23T01:15:50.225Z,99001.06
2022-09-23T01:17:07.483Z,99017.69
2022-09-23T01:18:41.572Z,99016.53
2022-09-23T01:20:13.958Z,99003.38
2022-09-23T01:21:29.928Z,99019.41
2022-09-23T01:22:54.289Z,99022.06
2022-09-23T01:24:15.163Z,99013.28
2022-09-23T01:25:44.826Z,99018.84
2022-09-23T01:26:58.742Z,99008.44
2022-09-23T01:28:33.554Z,98987.25
2022-09-23T01:29:53.577Z,99012.16
2022-09-23T01:31:04.583Z,99014.53
2022-09-23T01:32:23.672Z,99010.72
2022-09-23T01:33:30.694Z,99011.53
2022-09-23T01:34:55.574Z,99001.47
2022-09-23T01:36:28.089Z,99011.38
2022-09-23T01:37:57.470Z,99004.78
2022-09-23T01:39:20.192Z,99007.66
2022-09-23T01:40:43.624Z,99005.22
2022-09-23T01:41:54.797Z,98994.94
2022-09-23T01:43:20.551Z,98993.53
2022-09-23T01:44:40.613Z,99010.44
2022-09-23T01:45:46.519Z,99001.72
2022-09-23T01:46:57.088Z,99004.09
2022-09-23T01:48:14.060Z,99005.13
2022-09-23T01:49:23.247Z,99013.63
2022-09-23T01:50:56.831Z,99006.84
2022-09-23T01:52:10.201Z,99009.38
2022-09-23T01:54:02.803Z,99005.34
2022-09-23T01:55:19.201Z,99002.91
2022-09-23T01:56:25.640Z,99002.69
2022-09-23T01:57:32.665Z,99003.84
2022-09-23T01:58:42.201Z,99003.50
2022-09-23T01:59:50.469Z,98996.63
2022-09-23T02:01:02.176Z,99009.13
2022-09-23T02:02:22.104Z,98996.31
2022-09-23T02:03:33.605Z,99017.91
2022-09-23T02:04:54.499Z,99004.91
2022-09-23T02:06:02.777Z,99006.03
2022-09-23T02:07:15.273Z,99007.66
2022-09-23T02:08:23.726Z,99006.84
2022-09-23T02:09:32.324Z,99009.72
2022-09-23T02:10:44.355Z,98996.41
2022-09-23T02:11:48.856Z,99009.84
2022-09-23T02:12:55.077Z,99011.94
2022-09-23T02:14:03.300Z,99011.69
2022-09-23T02:15:11.463Z,99028.19
2022-09-23T02:16:21.893Z,99002.28
2022-09-23T02:17:43.923Z,99027.69
2022-09-23T02:19:11.686Z,99023.72
2022-09-23T02:20:20.707Z,99021.38
2022-09-23T02:21:25.275Z,99020.16
2022-09-23T02:22:35.525Z,99021.41
2022-09-23T02:23:51.908Z,99029.78
2022-09-23T02:24:56.030Z,99015.09
2022-09-23T02:26:07.567Z,99025.59
2022-09-23T02:27:23.601Z,99027.66
2022-09-23T02:28:34.884Z,99031.72
2022-09-23T02:30:03.585Z,99032.97
2022-09-23T02:31:16.551Z,99037.47
2022-09-23T02:32:24.802Z,99037.69
2022-09-23T02:33:37.892Z,99037.41
2022-09-23T02:35:26.964Z,99033.84
2022-09-23T02:36:35.122Z,99014.59
2022-09-23T02:37:42.632Z,99037.72
2022-09-23T02:38:53.541Z,99033.84
2022-09-23T02:40:07.800Z,99038.97
2022-09-23T02:41:36.909Z,99038.97
2022-09-23T02:43:04.415Z,99035.78
2022-09-23T02:44:16.066Z,99016.94
2022-09-23T02:45:18.000Z,99016.94
2022-09-23T02:46:20.536Z,99026.13
2022-09-23T02:47:29.201Z,99028.78
2022-09-23T02:48:38.257Z,99032.72
2022-09-23T02:49:40.822Z,99015.13
2022-09-23T02:50:42.918Z,99035.75
2022-09-23T02:51:45.624Z,99021.81
2022-09-23T02:52:47.414Z,99033.19
2022-09-23T02:53:49.231Z,99037.41
2022-09-23T02:54:52.490Z,99013.34
2022-09-23T02:55:54.345Z,99023.09
2022-09-23T02:56:57.488Z,99027.69
2022-09-23T02:58:05.563Z,99037.88
2022-09-23T02:59:09.668Z,99021.81
2022-09-23T03:00:12.532Z,99031.34
2022-09-23T03:01:20.206Z,99040.47
2022-09-23T03:02:58.953Z,99040.84
2022-09-23T03:04:16.348Z,99022.81
2022-09-23T03:05:36.145Z,99053.81
2022-09-23T03:06:54.190Z,99049.56
2022-09-23T03:08:27.259Z,99041.03
2022-09-23T03:09:55.833Z,99046.75
2022-09-23T03:11:11.364Z,99043.69
2022-09-23T03:12:25.442Z,99043.69
2022-09-23T03:14:05.241Z,99051.84
2022-09-23T03:15:22.318Z,99045.94
2022-09-23T03:16:35.811Z,99044.69
2022-09-23T03:18:07.508Z,99044.69
2022-09-23T03:19:35.496Z,99044.91
2022-09-23T03:20:53.658Z,99033.19
2022-09-23T03:22:15.350Z,99034.00
2022-09-23T03:23:25.356Z,99047.97
2022-09-23T03:24:31.622Z,99053.06
2022-09-23T03:25:39.494Z,99052.66
2022-09-23T03:26:45.908Z,99032.31
2022-09-23T03:27:47.597Z,99053.41
2022-09-23T03:28:50.488Z,99030.25
2022-09-23T03:29:54.385Z,99049.53
2022-09-23T03:31:00.411Z,99051.34
2022-09-23T03:32:02.910Z,99055.22
2022-09-23T03:33:08.058Z,99052.59
2022-09-23T03:34:18.351Z,99056.03
2022-09-23T03:35:24.387Z,99056.03
2022-09-23T03:36:52.090Z,99064.81
2022-09-23T03:38:00.890Z,99049.56
2022-09-23T03:39:15.099Z,99059.78
2022-09-23T03:40:19.600Z,99044.78
2022-09-23T03:41:32.178Z,99056.75
2022-09-23T03:42:34.911Z,99059.81
2022-09-23T03:43:38.971Z,99074.72
2022-09-23T03:44:44.726Z,99054.78
2022-09-23T03:45:46.787Z,99062.88
2022-09-23T03:46:50.985Z,99064.53
2022-09-23T03:47:52.658Z,99057.00
2022-09-23T03:49:05.516Z,99050.75
2022-09-23T03:50:07.457Z,99068.22
2022-09-23T03:51:24.110Z,99057.84
2022-09-23T03:52:26.624Z,99054.84
2022-09-23T03:53:28.279Z,99063.75
2022-09-23T03:54:30.609Z,99064.19
2022-09-23T03:55:32.401Z,99057.06
2022-09-23T03:56:34.269Z,99057.50
2022-09-23T03:57:36.672Z,99069.84
2022-09-23T03:58:38.511Z,99062.94
2022-09-23T03:59:40.987Z,99052.81
2022-09-23T04:00:43.486Z,99071.47
2022-09-23T04:01:46.315Z,99061.09
2022-09-23T04:02:49.931Z,99071.28
2022-09-23T04:03:53.382Z,99066.63
2022-09-23T04:04:56.173Z,99071.47
2022-09-23T04:05:57.817Z,99059.75
2022-09-23T04:07:00.010Z,99058.94
2022-09-23T04:08:01.918Z,99066.41
2022-09-23T04:09:03.772Z,99066.19
2022-09-23T04:10:06.541Z,99068.63
2022-09-23T04:11:08.268Z,99067.00
2022-09-23T04:12:15.691Z,99080.44
2022-09-23T04:13:17.345Z,99044.06
2022-09-23T04:14:20.416Z,99066.19
2022-09-23T04:15:22.060Z,99067.41
2022-09-23T04:16:24.007Z,99070.25
2022-09-23T04:17:25.740Z,99064.16
2022-09-23T04:18:27.423Z,99068.22
2022-09-23T04:19:29.086Z,99072.69
2022-09-23T04:20:30.729Z,99067.41
2022-09-23T04:21:33.188Z,99055.25
2022-09-23T04:22:35.156Z,99081.44
2022-09-23T04:23:36.960Z,99069.44
2022-09-23T04:24:38.697Z,99075.56
2022-09-23T04:25:48.507Z,99063.00
2022-09-23T04:26:52.142Z,99086.34
2022-09-23T04:27:53.847Z,99068.28
2022-09-23T04:28:55.574Z,99085.31
2022-09-23T04:29:57.314Z,99075.34
2022-09-23T04:30:59.383Z,99085.31
2022-09-23T04:32:01.230Z,99075.16
2022-09-23T04:33:02.937Z,99073.09
2022-09-23T04:34:04.691Z,99078.81
2022-09-23T04:35:07.333Z,99078.59
2022-09-23T04:36:11.844Z,99076.56
2022-09-23T04:37:13.782Z,99081.84
2022-09-23T04:38:15.440Z,99074.75
2022-09-23T04:39:17.865Z,99085.66
2022-09-23T04:40:19.600Z,99087.50
2022-09-23T04:41:21.430Z,99080.59
2022-09-23T04:42:23.203Z,99087.09
2022-09-23T04:43:24.849Z,99080.81
2022-09-23T04:44:28.197Z,99077.31
2022-09-23T04:45:30.595Z,99089.72
2022-09-23T04:46:32.421Z,99068.16
2022-09-23T04:47:34.319Z,99102.72
2022-09-23T04:48:37.964Z,99091.91
2022-09-23T04:49:39.651Z,99097.81
2022-09-23T04:50:41.506Z,99090.47
2022-09-23T04:51:43.824Z,99100.03
2022-09-23T04:52:45.573Z,99077.50
2022-09-23T04:53:49.972Z,99088.22
2022-09-23T04:54:51.637Z,99094.94
2022-09-23T04:55:53.421Z,99099.78
2022-09-23T04:56:55.666Z,99077.03
2022-09-23T04:57:57.680Z,99090.66
2022-09-23T04:59:01.876Z,99072.75
2022-09-23T05:00:04.285Z,99092.81
2022-09-23T05:01:36.502Z,99098.72
2022-09-23T05:02:48.970Z,99103.56
2022-09-23T05:03:52.555Z,99090.38
2022-09-23T05:04:55.545Z,99094.66
2022-09-23T05:06:00.027Z,99102.50
2022-09-23T05:07:03.377Z,99106.38
2022-09-23T05:08:05.343Z,99114.53
2022-09-23T05:09:08.884Z,99114.34
2022-09-23T05:10:10.733Z,99113.34
2022-09-23T05:11:12.398Z,99108.78
2022-09-23T05:12:14.057Z,99116.88
2022-09-23T05:13:15.964Z,99113.19
2022-09-23T05:14:17.671Z,99109.09
2022-09-23T05:15:19.361Z,99105.41
2022-09-23T05:16:23.409Z,99106.00
2022-09-23T05:17:25.422Z,99107.47
2022-09-23T05:18:30.607Z,99107.47
2022-09-23T05:19:32.274Z,99109.75
2022-09-23T05:20:34.014Z,99104.31
2022-09-23T05:21:36.705Z,99101.78
2022-09-23T05:22:38.355Z,99108.25
2022-09-23T05:23:41.865Z,99105.38
2022-09-23T05:24:43.590Z,99108.75
2022-09-23T05:25:45.480Z,99099.75
2022-09-23T05:26:47.212Z,99110.63
2022-09-23T05:27:48.864Z,99108.19
2022-09-23T05:28:50.526Z,99101.38
2022-09-23T05:29:52.504Z,99108.19
2022-09-23T05:30:54.304Z,99105.75
2022-09-23T05:31:56.116Z,99102.19
2022-09-23T05:32:58.013Z,99107.72
2022-09-23T05:34:02.551Z,99106.31
2022-09-23T05:35:04.824Z,99104.31
2022-09-23T05:36:07.134Z,99103.50
2022-09-23T05:37:08.896Z,99106.03
2022-09-23T05:38:10.577Z,99096.22
2022-09-23T05:39:12.317Z,99101.75
2022-09-23T05:40:14.105Z,99106.84
2022-09-23T05:41:16.390Z,99103.16
2022-09-23T05:42:18.406Z,99103.59
2022-09-23T05:43:20.205Z,99098.72
2022-09-23T05:44:21.958Z,99094.56
2022-09-23T05:45:26.850Z,99103.88
2022-09-23T05:46:30.815Z,99099.91
2022-09-23T05:47:32.614Z,99105.13
2022-09-23T05:48:36.079Z,99110.16
2022-09-23T05:49:55.592Z,99105.41
2022-09-23T05:51:00.149Z,99100.34
2022-09-23T05:52:02.793Z,99081.59
2022-09-23T05:53:04.432Z,99109.59
2022-09-23T05:54:06.270Z,99099.19
2022-09-23T05:55:08.565Z,99093.97
2022-09-23T05:56:10.749Z,99106.56
2022-09-23T05:57:12.404Z,99111.53
2022-09-23T05:58:15.922Z,99109.13
2022-09-23T05:59:17.559Z,99115.22
2022-09-23T06:00:19.458Z,99109.56
2022-09-23T06:01:26.519Z,99114.06
2022-09-23T06:02:28.329Z,99115.69
2022-09-23T06:03:30.060Z,99116.38
2022-09-23T06:04:31.770Z,99097.69
2022-09-23T06:05:33.435Z,99108.56
2022-09-23T06:06:39.357Z,99089.72
2022-09-23T06:07:41.035Z,99100.81
2022-09-23T06:08:42.846Z,99119.84
2022-09-23T06:09:44.555Z,99122.84
2022-09-23T06:10:53.528Z,99119.63
2022-09-23T06:11:56.168Z,99113.25
2022-09-23T06:12:57.826Z,99122.03
2022-09-23T06:14:01.365Z,99120.19
2022-09-23T06:15:03.335Z,99112.47
2022-09-23T06:16:10.831Z,99122.63
2022-09-23T06:17:12.568Z,99123.44
2022-09-23T06:18:14.242Z,99123.31
2022-09-23T06:19:16.035Z,99122.03
2022-09-23T06:20:17.703Z,99119.75
2022-09-23T06:21:19.432Z,99121.38
2022-09-23T06:22:21.075Z,99119.31
2022-09-23T06:23:25.973Z,99102.63
2022-09-23T06:24:31.378Z,99123.25
2022-09-23T06:25:34.505Z,99126.63
2022-09-23T06:26:38.012Z,99111.03
2022-09-23T06:27:39.717Z,99116.28
2022-09-23T06:28:43.468Z,99127.25
2022-09-23T06:29:45.268Z,99127.53
2022-09-23T06:30:47.356Z,99121.38
2022-09-23T06:31:49.863Z,99122.34
2022-09-23T06:32:53.839Z,99123.28
2022-09-23T06:34:06.941Z,99119.34
2022-09-23T06:35:23.110Z,99126.72
2022-09-23T06:36:39.997Z,99127.81
2022-09-23T06:37:44.895Z,99123.06
2022-09-23T06:38:49.379Z,99118.19
2022-09-23T06:39:51.085Z,99117.25
2022-09-23T06:40:57.851Z,99117.91
2022-09-23T06:41:59.539Z,99124.94
2022-09-23T06:43:02.115Z,99115.03
2022-09-23T06:44:04.038Z,99120.44
2022-09-23T06:45:06.008Z,99116.97
2022-09-23T06:46:08.558Z,99112.09
2022-09-23T06:47:10.580Z,99117.94
2022-09-23T06:48:12.374Z,99119.50
2022-09-23T06:49:14.071Z,99113.25
2022-09-23T06:50:15.742Z,99115.59
2022-09-23T06:51:21.510Z,99115.91
2022-09-23T06:52:23.213Z,99115.47
2022-09-23T06:53:25.337Z,99123.78
2022-09-23T06:54:30.957Z,99120.09
2022-09-23T06:55:33.133Z,99118.00
2022-09-23T06:56:38.779Z,99120.41
2022-09-23T06:57:41.868Z,99123.16
2022-09-23T06:58:43.784Z,99119.44
2022-09-23T06:59:45.602Z,99120.63
2022-09-23T07:00:47.253Z,99120.53
2022-09-23T07:01:50.662Z,99122.97
2022-09-23T07:02:54.894Z,99132.03
2022-09-23T07:03:56.679Z,99113.75
2022-09-23T07:04:58.330Z,99117.63
2022-09-23T07:06:01.025Z,99122.00
2022-09-23T07:07:02.715Z,99121.75
2022-09-23T07:08:09.568Z,99118.03
2022-09-23T07:09:11.370Z,99124.03
2022-09-23T07:10:13.314Z,99120.56
2022-09-23T07:11:15.922Z,99122.44
2022-09-23T07:12:17.673Z,99115.44
2022-09-23T07:13:19.361Z,99118.69
2022-09-23T07:14:21.195Z,99115.47
2022-09-23T07:15:22.870Z,99121.09
2022-09-23T07:16:24.603Z,99099.84
2022-09-23T07:17:26.836Z,99115.84
2022-09-23T07:18:36.205Z,99111.50
2022-09-23T07:19:38.820Z,99114.03
2022-09-23T07:20:40.504Z,99115.56
2022-09-23T07:21:42.234Z,99108.38
2022-09-23T07:22:44.412Z,99117.66
2022-09-23T07:23:48.267Z,99105.00
2022-09-23T07:24:50.042Z,99115.28
2022-09-23T07:25:52.816Z,99110.41
2022-09-23T07:26:55.677Z,99112.84
2022-09-23T07:27:57.316Z,99109.59
2022-09-23T07:29:05.146Z,99123.06
2022-09-23T07:30:12.456Z,99108.28
2022-09-23T07:31:30.508Z,99112.56
2022-09-23T07:32:46.952Z,99115.53
2022-09-23T07:33:57.384Z,99126.19
2022-09-23T07:34:59.326Z,99110.66
2022-09-23T07:36:10.848Z,99119.63
2022-09-23T07:37:12.833Z,99120.28
2022-09-23T07:38:14.470Z,99126.47
2022-09-23T07:39:16.162Z,99126.47
2022-09-23T07:40:17.884Z,99121.34
2022-09-23T07:41:19.788Z,99122.78
2022-09-23T07:42:21.706Z,99124.13
2022-09-23T07:43:23.359Z,99123.25
2022-09-23T07:44:25.695Z,99126.91
2022-09-23T07:45:27.786Z,99124.63
2022-09-23T07:46:31.960Z,99125.50
2022-09-23T07:47:33.667Z,99126.41
2022-09-23T07:48:36.971Z,99127.06
2022-09-23T07:49:38.643Z,99119.75
2022-09-23T07:50:40.590Z,99122.16
2022-09-23T07:51:46.328Z,99109.94
2022-09-23T07:52:52.451Z,99104.53
2022-09-23T07:53:55.266Z,99115.41
2022-09-23T07:54:56.930Z,99122.22
2022-09-23T07:55:59.526Z,99116.84
2022-09-23T07:57:01.688Z,99119.03
2022-09-23T07:58:03.357Z,99124.16
2022-09-23T07:59:08.936Z,99119.44
2022-09-23T08:00:12.290Z,99117.72
2022-09-23T08:01:14.173Z,99125.59
2022-09-23T08:02:16.594Z,99116.28
2022-09-23T08:03:18.613Z,99114.47
2022-09-23T08:04:24.459Z,99116.53
2022-09-23T08:05:26.380Z,99114.75
2022-09-23T08:06:28.159Z,99114.81
2022-09-23T08:07:29.828Z,99117.53
2022-09-23T08:08:32.178Z,99120.09
2022-09-23T08:09:41.524Z,99113.44
2022-09-23T08:10:43.630Z,99107.41
2022-09-23T08:11:48.192Z,99116.53
2022-09-23T08:12:49.872Z,99099.19
2022-09-23T08:13:51.795Z,99113.91
2022-09-23T08:14:53.475Z,99094.38
2022-09-23T08:15:55.742Z,99105.19
2022-09-23T08:16:57.963Z,99108.91
2022-09-23T08:18:00.573Z,99093.38
2022-09-23T08:19:02.833Z,99111.69
2022-09-23T08:20:05.062Z,99110.88
2022-09-23T08:21:06.744Z,99100.78
2022-09-23T08:22:08.692Z,99111.81
2022-09-23T08:23:13.398Z,99089.69
2022-09-23T08:24:17.680Z,99107.81
2022-09-23T08:25:22.159Z,99103.75
2022-09-23T08:26:24.661Z,99106.84
2022-09-23T08:27:28.191Z,99105.63
2022-09-23T08:28:30.509Z,99102.13
2022-09-23T08:29:32.155Z,99092.50
2022-09-23T08:30:34.101Z,99098.09
2022-09-23T08:31:36.060Z,99094.59
2022-09-23T08:32:37.696Z,99085.56
2022-09-23T08:33:40.752Z,99089.75
2022-09-23T08:34:42.797Z,99081.78
2022-09-23T08:35:44.447Z,99097.88
2022-09-23T08:36:46.941Z,99092.53
2022-09-23T08:37:49.056Z,99092.44
2022-09-23T08:38:50.817Z,99087.28
2022-09-23T08:39:52.462Z,99096.94
2022-09-23T08:41:04.502Z,99087.31
2022-09-23T08:42:16.433Z,99071.81
2022-09-23T08:43:29.918Z,99083.13
2022-09-23T08:44:48.597Z,99072.09
2022-09-23T08:45:52.073Z,99094.09
2022-09-23T08:47:07.657Z,99084.47
2022-09-23T08:48:15.928Z,99091.78
2022-09-23T08:49:26.552Z,99079.25
2022-09-23T08:50:39.483Z,99085.44
2022-09-23T08:51:48.633Z,99071.31
2022-09-23T08:53:07.903Z,99066.69
2022-09-23T08:54:11.780Z,99072.09
2022-09-23T08:55:15.114Z,99082.50
2022-09-23T08:56:20.326Z,99082.72
2022-09-23T08:57:57.427Z,99080.75
2022-09-23T08:59:14.954Z,99081.44
2022-09-23T09:00:21.636Z,99075.59
2022-09-23T09:01:31.675Z,99095.41
2022-09-23T09:02:36.698Z,99067.38
2022-09-23T09:03:51.981Z,99068.09
2022-09-23T09:05:06.072Z,99085.75
2022-09-23T09:06:16.065Z,99068.78
2022-09-23T09:07:37.951Z,99078.09
2022-09-23T09:08:41.453Z,99078.94
2022-09-23T09:10:00.155Z,99063.72
2022-09-23T09:11:03.302Z,99060.53
2022-09-23T09:12:10.672Z,99066.28
2022-09-23T09:13:43.375Z,99073.44
2022-09-23T09:14:53.878Z,99069.72
2022-09-23T09:16:55.608Z,99065.56
2022-09-23T09:17:59.371Z,99076.59
2022-09-23T09:19:02.420Z,99074.25
2022-09-23T09:20:19.002Z,99069.16
2022-09-23T09:21:29.314Z,99068.50
2022-09-23T09:22:39.979Z,99070.28
2022-09-23T09:24:00.330Z,99046.97
2022-09-23T09:25:19.685Z,99058.75
2022-09-23T09:26:34.128Z,99026.66
2022-09-23T09:27:40.721Z,99062.75
2022-09-23T09:28:47.716Z,99066.94
2022-09-23T09:29:53.717Z,99068.81
2022-09-23T09:31:00.054Z,99069.28
2022-09-23T09:32:17.054Z,99068.00
2022-09-23T09:33:24.197Z,99068.03
2022-09-23T09:34:44.077Z,99068.66
2022-09-23T09:35:45.953Z,99059.41
2022-09-23T09:37:07.448Z,99062.94
2022-09-23T09:38:09.423Z,99068.81
2022-09-23T09:39:15.498Z,99070.25
2022-09-23T09:40:17.825Z,99067.53
2022-09-23T09:41:24.672Z,99068.47
2022-09-23T09:42:40.379Z,99069.59
2022-09-23T09:43:48.560Z,99071.19
2022-09-23T09:44:58.596Z,99058.06
2022-09-23T09:46:24.941Z,99061.00
2022-09-23T09:47:38.570Z,99070.31
2022-09-23T09:48:53.855Z,99068.25
2022-09-23T09:50:11.140Z,99072.56
2022-09-23T09:51:21.660Z,99064.88
2022-09-23T09:52:29.863Z,99077.19
2022-09-23T09:53:35.884Z,99066.47
2022-09-23T09:54:39.274Z,99069.97
2022-09-23T09:55:41.589Z,99064.06
2022-09-23T09:56:44.880Z,99062.78
2022-09-23T09:57:55.937Z,99043.94
2022-09-23T09:59:13.906Z,99064.59
2022-09-23T10:00:27.811Z,99063.31
2022-09-23T10:01:34.725Z,99057.09
2022-09-23T10:02:37.568Z,99058.34
2022-09-23T10:03:41.589Z,99053.66
2022-09-23T10:04:43.532Z,99053.94
2022-09-23T10:05:45.264Z,99055.75
2022-09-23T10:07:12.245Z,99062.19
2022-09-23T10:08:36.313Z,99062.03
2022-09-23T10:09:40.071Z,99059.16
2022-09-23T10:10:54.913Z,99056.09
2022-09-23T10:12:18.836Z,99057.06
2022-09-23T10:13:24.364Z,99048.13
2022-09-23T10:14:26.774Z,99060.75
2022-09-23T10:15:44.496Z,99060.56
2022-09-23T10:17:01.957Z,99049.72
2022-09-23T10:18:03.758Z,99042.22
2022-09-23T10:19:24.002Z,99052.88
2022-09-23T10:20:25.919Z,99054.31
2022-09-23T10:21:37.751Z,99049.06
2022-09-23T10:22:42.603Z,99051.31
2022-09-23T10:23:48.541Z,99044.91
2022-09-23T10:24:54.013Z,99045.06
2022-09-23T10:26:05.700Z,99042.84
2022-09-23T10:27:12.100Z,99028.75
2022-09-23T10:28:32.517Z,99045.22
2022-09-23T10:29:38.736Z,99036.31
2022-09-23T10:30:40.467Z,99039.81
2022-09-23T10:31:43.049Z,99041.25
2022-09-23T10:32:45.462Z,99043.00
2022-09-23T10:33:50.153Z,99041.72
2022-09-23T10:35:13.504Z,99030.84
2022-09-23T10:36:17.384Z,99028.91
2022-09-23T10:37:27.696Z,99020.16
2022-09-23T10:38:29.418Z,99022.69
2022-09-23T10:39:57.358Z,99020.09
2022-09-23T10:41:17.238Z,99016.56
2022-09-23T10:43:05.123Z,99020.13
2022-09-23T10:44:59.193Z,99023.16
2022-09-23T10:46:24.687Z,99008.75
2022-09-23T10:47:36.117Z,99016.94
2022-09-23T10:48:49.783Z,99018.25
2022-09-23T10:49:54.561Z,99012.25
2022-09-23T10:50:59.462Z,99015.94
2022-09-23T10:52:19.398Z,99017.69
2022-09-23T10:53:36.053Z,99016.34
2022-09-23T10:55:02.256Z,99015.94
2022-09-23T10:56:07.230Z,99008.94
2022-09-23T10:57:31.798Z,99015.88
2022-09-23T10:58:59.114Z,99020.16
2022-09-23T11:00:26.197Z,99015.25
2022-09-23T11:01:31.121Z,99007.16
2022-09-23T11:02:35.994Z,99001.00
2022-09-23T11:04:00.222Z,99001.41
2022-09-23T11:05:11.518Z,99003.00
2022-09-23T11:06:28.781Z,99003.09
2022-09-23T11:07:55.429Z,99004.50
2022-09-23T11:09:29.136Z,99007.09
2022-09-23T11:10:52.125Z,99004.66
2022-09-23T11:12:24.273Z,98999.16
2022-09-23T11:13:31.691Z,99002.59
2022-09-23T11:14:59.428Z,98981.44
2022-09-23T11:16:59.851Z,98995.91
2022-09-23T11:18:17.901Z,98989.38
2022-09-23T11:19:33.848Z,98992.81
2022-09-23T11:20:58.550Z,98991.59
2022-09-23T11:22:22.943Z,98991.44
2022-09-23T11:23:32.790Z,98991.44
2022-09-23T11:24:52.185Z,98988.72
2022-09-23T11:26:06.152Z,98980.00
2022-09-23T11:27:18.998Z,98985.31
2022-09-23T11:28:55.788Z,98984.13
2022-09-23T11:30:09.534Z,98980.41
2022-09-23T11:31:25.701Z,98983.13
2022-09-23T11:32:30.141Z,98985.44
2022-09-23T11:33:50.747Z,98992.84
2022-09-23T11:35:16.881Z,98986.63
2022-09-23T11:36:36.308Z,98983.41
2022-09-23T11:37:44.152Z,98963.63
2022-09-23T11:38:50.947Z,98967.50
2022-09-23T11:40:00.317Z,98971.50
2022-09-23T11:41:29.959Z,98969.53
2022-09-23T11:42:36.705Z,98974.72
2022-09-23T11:43:40.012Z,98961.88
2022-09-23T11:44:56.261Z,98966.59
2022-09-23T11:46:16.056Z,98970.88
2022-09-23T11:47:26.428Z,98954.63
2022-09-23T11:48:40.252Z,98953.38
2022-09-23T11:49:51.192Z,98902.38
2022-09-23T11:51:10.118Z,98942.22
2022-09-23T11:52:39.288Z,98947.59
2022-09-23T11:53:47.780Z,98921.50
2022-09-23T11:54:56.376Z,98942.91
2022-09-23T11:56:07.570Z,98942.25
2022-09-23T11:57:48.643Z,98953.81
2022-09-23T11:59:01.316Z,98948.06
2022-09-23T12:00:07.302Z,98949.94
2022-09-23T12:01:27.083Z,98953.25
2022-09-23T12:03:06.307Z,98953.66
2022-09-23T12:04:53.416Z,98956.81
2022-09-23T12:06:06.479Z,98934.94
2022-09-23T12:07:15.017Z,98943.28
2022-09-23T12:08:39.285Z,98919.25
2022-09-23T12:10:14.453Z,98945.69
2022-09-23T12:11:22.181Z,98942.69
2022-09-23T12:12:30.494Z,98950.66
2022-09-23T12:13:41.160Z,98942.63
2022-09-23T12:15:06.169Z,98939.78
2022-09-23T12:16:36.393Z,98950.09
2022-09-23T12:17:59.387Z,98947.50
2022-09-23T12:19:28.137Z,98944.66
2022-09-23T12:20:41.691Z,98956.03
2022-09-23T12:21:56.715Z,98949.63
2022-09-23T12:23:16.922Z,98944.78
2022-09-23T12:24:27.798Z,98938.06
2022-09-23T12:25:41.052Z,98943.72
2022-09-23T12:26:45.536Z,98928.47
2022-09-23T12:27:51.321Z,98942.38
2022-09-23T12:28:58.883Z,98940.84
2022-09-23T12:30:18.018Z,98924.47
2022-09-23T12:31:30.802Z,98936.28
2022-09-23T12:32:33.520Z,98940.44
2022-09-23T12:33:37.001Z,98935.13
2022-09-23T12:34:49.148Z,98936.75
2022-09-23T12:35:54.126Z,98938.41
2022-09-23T12:37:04.347Z,98950.81
2022-09-23T12:38:14.979Z,98936.63
2022-09-23T12:39:27.800Z,98945.22
2022-09-23T12:40:34.276Z,98949.00
2022-09-23T12:41:39.605Z,98941.72
2022-09-23T12:42:46.143Z,98933.16
2022-09-23T12:44:15.543Z,98928.38
2022-09-23T12:45:33.810Z,98944.50
2022-09-23T12:46:35.788Z,98946.91
2022-09-23T12:47:39.005Z,98937.50
2022-09-23T12:48:45.198Z,98930.19
2022-09-23T12:49:47.943Z,98932.06
2022-09-23T12:51:03.041Z,98940.13
2022-09-23T12:52:16.793Z,98935.00
2022-09-23T12:53:33.779Z,98950.28
2022-09-23T12:54:35.451Z,98942.75
2022-09-23T12:55:40.104Z,98942.72
2022-09-23T12:56:43.625Z,98943.53
2022-09-23T12:57:45.432Z,98939.97
2022-09-23T12:58:47.071Z,98946.41
2022-09-23T12:59:52.142Z,98942.63
2022-09-23T13:01:15.309Z,98941.84
2022-09-23T13:02:28.722Z,98943.75
2022-09-23T13:03:49.428Z,98937.81
2022-09-23T13:05:44.180Z,98932.44
2022-09-23T13:07:08.548Z,98932.38
2022-09-23T13:08:19.710Z,98936.47
2022-09-23T13:09:41.173Z,98925.72
2022-09-23T13:10:54.782Z,98929.94
2022-09-23T13:12:03.017Z,98928.63
2022-09-23T13:13:07.287Z,98919.75
2022-09-23T13:14:15.470Z,98934.50
2022-09-23T13:15:26.820Z,98932.84
2022-09-23T13:16:35.252Z,98938.22
2022-09-23T13:17:38.647Z,98936.09
2022-09-23T13:18:54.213Z,98938.50
2022-09-23T13:20:26.186Z,98926.97
2022-09-23T13:21:42.968Z,98931.47
2022-09-23T13:22:53.473Z,98932.28
2022-09-23T13:24:13.314Z,98933.09
2022-09-23T13:25:20.717Z,98926.34
2022-09-23T13:26:22.938Z,98927.94
2022-09-23T13:27:35.796Z,98932.78
2022-09-23T13:28:44.823Z,98908.91